createdAt,value
2022-08-02T00:01:03.199Z,101463.78
2022-08-02T00:02:05.685Z,101463.78
2022-08-02T00:03:08.993Z,101457.56
2022-08-02T00:04:11.535Z,101459.41
2022-08-02T00:05:15.217Z,101451.38
2022-08-02T00:06:17.504Z,101458.59
2022-08-02T00:07:20.730Z,101455.91
2022-08-02T00:08:23.072Z,101461.47
2022-08-02T00:09:26.422Z,101451.78
2022-08-02T00:10:28.726Z,101461.47
2022-08-02T00:11:34.069Z,101461.47
2022-08-02T00:12:36.670Z,101452.63
2022-08-02T00:13:40.021Z,101458.16
2022-08-02T00:14:42.482Z,101462.50
2022-08-02T00:15:47.022Z,101457.34
2022-08-02T00:16:49.353Z,101465.38
2022-08-02T00:17:52.657Z,101457.53
2022-08-02T00:18:55.132Z,101461.22
2022-08-02T00:19:58.372Z,101458.53
2022-08-02T00:21:00.573Z,101456.88
2022-08-02T00:22:03.745Z,101451.69
2022-08-02T00:23:07.061Z,101456.22
2022-08-02T00:24:29.802Z,101447.34
2022-08-02T00:25:32.802Z,101440.53
2022-08-02T00:26:35.055Z,101442.38
2022-08-02T00:27:38.316Z,101441.56
2022-08-02T00:28:40.686Z,101445.25
2022-08-02T00:29:53.099Z,101440.94
2022-08-02T00:30:59.035Z,101439.25
2022-08-02T00:32:02.478Z,101436.56
2022-08-02T00:33:05.731Z,101436.56
2022-08-02T00:34:28.495Z,101438.44
2022-08-02T00:35:31.474Z,101434.94
2022-08-02T00:36:34.731Z,101441.31
2022-08-02T00:37:39.752Z,101442.31
2022-08-02T00:38:43.248Z,101433.66
2022-08-02T00:39:45.398Z,101434.50
2022-08-02T00:40:49.079Z,101445.41
2022-08-02T00:41:53.029Z,101448.91
2022-08-02T00:43:04.333Z,101443.75
2022-08-02T00:44:06.470Z,101444.75
2022-08-02T00:45:10.460Z,101452.16
2022-08-02T00:46:14.329Z,101453.19
2022-08-02T00:47:19.431Z,101449.88
2022-08-02T00:48:22.056Z,101448.41
2022-08-02T00:49:25.218Z,101442.41
2022-08-02T00:50:27.741Z,101450.66
2022-08-02T00:51:30.905Z,101457.00
2022-08-02T00:52:33.017Z,101452.69
2022-08-02T00:53:36.458Z,101458.03
2022-08-02T00:54:38.540Z,101460.91
2022-08-02T00:55:41.689Z,101454.72
2022-08-02T00:56:49.648Z,101464.59
2022-08-02T00:57:54.918Z,101462.94
2022-08-02T00:58:57.142Z,101462.09
2022-08-02T01:00:00.275Z,101464.78
2022-08-02T01:01:03.652Z,101466.66
2022-08-02T01:02:08.390Z,101471.16
2022-08-02T01:03:10.638Z,101468.50
2022-08-02T01:04:15.399Z,101472.19
2022-08-02T01:05:46.952Z,101475.25
2022-08-02T01:06:56.092Z,101471.75
2022-08-02T01:07:58.347Z,101484.31
2022-08-02T01:09:02.000Z,101478.09
2022-08-02T01:10:05.123Z,101480.13
2022-08-02T01:11:08.679Z,101479.34
2022-08-02T01:12:12.069Z,101466.94
2022-08-02T01:13:15.589Z,101475.16
2022-08-02T01:14:18.877Z,101466.34
2022-08-02T01:15:23.632Z,101475.56
2022-08-02T01:16:43.253Z,101470.22
2022-08-02T01:17:53.743Z,101476.59
2022-08-02T01:19:01.664Z,101467.72
2022-08-02T01:20:13.296Z,101482.75
2022-08-02T01:21:32.785Z,101480.47
2022-08-02T01:23:03.596Z,101473.47
2022-08-02T01:24:21.160Z,101476.13
2022-08-02T01:25:46.080Z,101477.13
2022-08-02T01:26:52.990Z,101472.63
2022-08-02T01:28:37.367Z,101471.78
2022-08-02T01:29:43.827Z,101480.84
2022-08-02T01:30:50.026Z,101473.00
2022-08-02T01:32:00.467Z,101476.53
2022-08-02T01:33:06.900Z,101477.53
2022-08-02T01:34:17.741Z,101477.53
2022-08-02T01:35:25.343Z,101477.53
2022-08-02T01:36:34.195Z,101480.19
2022-08-02T01:37:43.306Z,101475.88
2022-08-02T01:38:49.683Z,101481.22
2022-08-02T01:39:57.843Z,101479.56
2022-08-02T01:41:03.928Z,101475.22
2022-08-02T01:42:08.729Z,101477.06
2022-08-02T01:43:12.604Z,101476.63
2022-08-02T01:44:20.095Z,101472.09
2022-08-02T01:45:33.239Z,101477.66
2022-08-02T01:46:39.687Z,101476.16
2022-08-02T01:47:44.300Z,101471.66
2022-08-02T01:48:49.729Z,101475.34
2022-08-02T01:49:54.685Z,101475.34
2022-08-02T01:51:00.269Z,101472.03
2022-08-02T01:52:22.465Z,101482.75
2022-08-02T01:53:29.159Z,101485.41
2022-08-02T01:54:33.720Z,101475.75
2022-08-02T01:55:57.555Z,101480.25
2022-08-02T01:57:03.087Z,101473.88
2022-08-02T01:58:09.196Z,101477.56
2022-08-02T01:59:14.176Z,101483.94
2022-08-02T02:00:20.907Z,101483.13
2022-08-02T02:01:23.983Z,101486.78
2022-08-02T02:02:31.804Z,101490.50
2022-08-02T02:03:35.775Z,101487.81
2022-08-02T02:04:46.943Z,101484.31
2022-08-02T02:05:50.563Z,101493.56
2022-08-02T02:06:55.036Z,101483.84
2022-08-02T02:07:59.036Z,101495.41
2022-08-02T02:09:04.018Z,101511.63
2022-08-02T02:10:09.206Z,101496.63
2022-08-02T02:12:14.713Z,101493.28
2022-08-02T02:12:39.491Z,101484.63
2022-08-02T02:13:43.807Z,101483.78
2022-08-02T02:14:51.393Z,101481.28
2022-08-02T02:15:58.685Z,101486.66
2022-08-02T02:17:02.994Z,101482.97
2022-08-02T02:18:13.281Z,101490.16
2022-08-02T02:19:20.917Z,101484.81
2022-08-02T02:20:25.321Z,101483.13
2022-08-02T02:21:27.504Z,101481.28
2022-08-02T02:22:30.816Z,101483.13
2022-08-02T02:23:35.598Z,101475.50
2022-08-02T02:24:39.209Z,101476.13
2022-08-02T02:25:46.451Z,101471.63
2022-08-02T02:26:52.561Z,101479.66
2022-08-02T02:28:00.017Z,101474.50
2022-08-02T02:29:04.325Z,101469.31
2022-08-02T02:30:07.964Z,101473.00
2022-08-02T02:31:15.267Z,101471.34
2022-08-02T02:32:18.799Z,101466.19
2022-08-02T02:33:27.670Z,101470.72
2022-08-02T02:34:34.238Z,101463.72
2022-08-02T02:35:39.023Z,101462.03
2022-08-02T02:36:45.867Z,101462.03
2022-08-02T02:37:50.818Z,101457.72
2022-08-02T02:38:54.333Z,101461.38
2022-08-02T02:39:59.301Z,101461.38
2022-08-02T02:41:03.400Z,101459.75
2022-08-02T02:42:10.162Z,101457.25
2022-08-02T02:43:12.942Z,101459.09
2022-08-02T02:44:20.504Z,101449.41
2022-08-02T02:45:24.292Z,101449.41
2022-08-02T02:46:31.182Z,101446.09
2022-08-02T02:47:40.743Z,101449.81
2022-08-02T02:48:45.473Z,101452.47
2022-08-02T02:49:49.163Z,101454.31
2022-08-02T02:50:52.651Z,101450.81
2022-08-02T02:51:56.134Z,101450.16
2022-08-02T02:53:00.318Z,101450.16
2022-08-02T02:54:30.715Z,101448.50
2022-08-02T02:55:27.855Z,101445.81
2022-08-02T02:56:30.514Z,101438.84
2022-08-02T02:57:34.434Z,101444.19
2022-08-02T02:58:38.298Z,101444.00
2022-08-02T02:59:49.195Z,101444.19
2022-08-02T03:01:10.779Z,101441.50
2022-08-02T03:02:15.933Z,101445.81
2022-08-02T03:03:19.732Z,101453.00
2022-08-02T03:04:26.181Z,101444.00
2022-08-02T03:05:28.550Z,101444.00
2022-08-02T03:06:32.039Z,101446.66
2022-08-02T03:07:34.648Z,101444.81
2022-08-02T03:08:37.856Z,101442.31
2022-08-02T03:09:40.029Z,101443.16
2022-08-02T03:10:44.202Z,101443.16
2022-08-02T03:11:46.766Z,101443.16
2022-08-02T03:12:50.548Z,101449.53
2022-08-02T03:13:53.514Z,101449.53
2022-08-02T03:14:56.796Z,101452.22
2022-08-02T03:16:02.026Z,101454.03
2022-08-02T03:17:05.322Z,101452.22
2022-08-02T03:18:09.817Z,101452.22
2022-08-02T03:19:12.143Z,101440.66
2022-08-02T03:20:17.731Z,101444.19
2022-08-02T03:21:19.916Z,101445.00
2022-08-02T03:22:23.049Z,101439.66
2022-08-02T03:23:25.140Z,101446.84
2022-08-02T03:24:28.583Z,101443.16
2022-08-02T03:25:30.843Z,101442.13
2022-08-02T03:26:33.965Z,101444.81
2022-08-02T03:27:36.131Z,101440.28
2022-08-02T03:28:39.488Z,101434.94
2022-08-02T03:29:41.617Z,101436.59
2022-08-02T03:30:44.779Z,101435.59
2022-08-02T03:31:46.962Z,101431.25
2022-08-02T03:32:50.259Z,101436.44
2022-08-02T03:33:54.255Z,101427.38
2022-08-02T03:34:57.911Z,101434.56
2022-08-02T03:36:05.343Z,101430.88
2022-08-02T03:37:10.415Z,101433.38
2022-08-02T03:38:13.635Z,101427.00
2022-08-02T03:39:18.861Z,101435.84
2022-08-02T03:40:21.744Z,101433.00
2022-08-02T03:41:25.686Z,101433.84
2022-08-02T03:42:28.889Z,101429.28
2022-08-02T03:43:32.449Z,101434.63
2022-08-02T03:44:35.597Z,101429.28
2022-08-02T03:45:41.067Z,101427.25
2022-08-02T03:46:44.616Z,101421.91
2022-08-02T03:47:48.056Z,101425.22
2022-08-02T03:48:51.708Z,101426.88
2022-08-02T03:49:57.148Z,101426.06
2022-08-02T03:50:59.994Z,101424.84
2022-08-02T03:52:04.072Z,101422.16
2022-08-02T03:53:06.595Z,101432.69
2022-08-02T03:54:34.806Z,101425.31
2022-08-02T03:55:48.726Z,101422.63
2022-08-02T03:56:50.994Z,101426.78
2022-08-02T03:57:54.309Z,101432.13
2022-08-02T03:59:07.027Z,101427.59
2022-08-02T04:00:13.094Z,101426.59
2022-08-02T04:01:17.535Z,101425.56
2022-08-02T04:02:19.702Z,101426.22
2022-08-02T04:03:23.145Z,101433.41
2022-08-02T04:04:25.299Z,101437.56
2022-08-02T04:05:29.784Z,101433.00
2022-08-02T04:06:32.208Z,101434.69
2022-08-02T04:08:34.178Z,101441.03
2022-08-02T04:08:58.545Z,101432.00
2022-08-02T04:10:00.819Z,101442.72
2022-08-02T04:11:21.429Z,101436.34
2022-08-02T04:12:24.656Z,101441.69
2022-08-02T04:13:31.850Z,101441.69
2022-08-02T04:14:39.318Z,101439.84
2022-08-02T04:15:41.865Z,101441.69
2022-08-02T04:16:48.012Z,101442.53
2022-08-02T04:17:53.017Z,101439.84
2022-08-02T04:19:04.834Z,101441.50
2022-08-02T04:20:13.015Z,101443.16
2022-08-02T04:21:20.570Z,101443.97
2022-08-02T04:22:28.669Z,101443.97
2022-08-02T04:23:33.222Z,101449.34
2022-08-02T04:24:40.687Z,101450.38
2022-08-02T04:25:44.485Z,101448.53
2022-08-02T04:26:49.904Z,101455.72
2022-08-02T04:28:17.797Z,101456.75
2022-08-02T04:29:18.255Z,101452.38
2022-08-02T04:30:21.498Z,101445.19
2022-08-02T04:31:25.387Z,101459.56
2022-08-02T04:32:28.000Z,101461.44
2022-08-02T04:33:32.284Z,101454.41
2022-08-02T04:34:34.623Z,101461.44
2022-08-02T04:35:37.921Z,101463.28
2022-08-02T04:36:41.540Z,101461.44
2022-08-02T04:38:05.575Z,101464.13
2022-08-02T04:39:08.507Z,101461.44
2022-08-02T04:40:12.156Z,101453.41
2022-08-02T04:41:15.697Z,101454.22
2022-08-02T04:42:22.010Z,101460.41
2022-08-02T04:43:25.498Z,101459.56
2022-08-02T04:44:28.669Z,101455.91
2022-08-02T04:45:31.086Z,101454.06
2022-08-02T04:46:34.628Z,101457.56
2022-08-02T04:47:54.348Z,101453.22
2022-08-02T04:49:00.116Z,101450.38
2022-08-02T04:50:04.785Z,101461.91
2022-08-02T04:51:07.911Z,101461.06
2022-08-02T04:52:11.701Z,101454.69
2022-08-02T04:53:15.104Z,101462.72
2022-08-02T04:54:18.315Z,101453.03
2022-08-02T04:55:20.529Z,101456.38
2022-08-02T04:56:25.366Z,101451.81
2022-08-02T04:57:52.373Z,101451.81
2022-08-02T04:58:56.276Z,101458.00
2022-08-02T04:59:58.493Z,101457.16
2022-08-02T05:01:01.660Z,101448.34
2022-08-02T05:02:03.884Z,101452.66
2022-08-02T05:03:07.085Z,101448.97
2022-08-02T05:04:09.335Z,101449.78
2022-08-02T05:05:12.486Z,101446.09
2022-08-02T05:06:19.248Z,101453.09
2022-08-02T05:07:24.247Z,101450.03
2022-08-02T05:08:26.435Z,101455.22
2022-08-02T05:09:29.574Z,101446.97
2022-08-02T05:10:31.756Z,101448.66
2022-08-02T05:11:36.588Z,101452.78
2022-08-02T05:12:39.682Z,101452.44
2022-08-02T05:13:58.495Z,101462.75
2022-08-02T05:15:02.636Z,101464.00
2022-08-02T05:16:05.570Z,101449.44
2022-08-02T05:17:08.672Z,101450.88
2022-08-02T05:18:12.381Z,101457.53
2022-08-02T05:19:16.559Z,101457.13
2022-08-02T05:20:19.499Z,101443.34
2022-08-02T05:21:22.621Z,101450.19
2022-08-02T05:22:26.250Z,101439.94
2022-08-02T05:23:29.457Z,101442.22
2022-08-02T05:24:31.634Z,101450.69
2022-08-02T05:25:34.791Z,101448.47
2022-08-02T05:26:36.906Z,101441.69
2022-08-02T05:27:40.072Z,101447.50
2022-08-02T05:28:43.227Z,101443.41
2022-08-02T05:29:53.031Z,101448.38
2022-08-02T05:30:57.372Z,101450.50
2022-08-02T05:31:59.544Z,101447.25
2022-08-02T05:33:02.665Z,101451.19
2022-08-02T05:34:07.573Z,101454.31
2022-08-02T05:35:15.138Z,101457.22
2022-08-02T05:36:17.294Z,101453.16
2022-08-02T05:37:20.980Z,101453.41
2022-08-02T05:38:26.148Z,101449.47
2022-08-02T05:39:31.924Z,101456.75
2022-08-02T05:40:34.107Z,101459.69
2022-08-02T05:41:37.293Z,101452.88
2022-08-02T05:42:39.414Z,101461.16
2022-08-02T05:43:42.481Z,101464.91
2022-08-02T05:44:44.670Z,101467.84
2022-08-02T05:45:47.732Z,101461.06
2022-08-02T05:46:49.887Z,101456.94
2022-08-02T05:47:53.658Z,101458.84
2022-08-02T05:48:56.031Z,101451.84
2022-08-02T05:49:59.630Z,101455.78
2022-08-02T05:51:05.680Z,101446.94
2022-08-02T05:52:16.039Z,101451.72
2022-08-02T05:53:29.961Z,101454.41
2022-08-02T05:54:40.253Z,101452.78
2022-08-02T05:55:49.270Z,101453.00
2022-08-02T05:56:55.065Z,101444.16
2022-08-02T05:58:03.951Z,101447.91
2022-08-02T05:59:13.948Z,101451.59
2022-08-02T06:00:18.104Z,101451.63
2022-08-02T06:01:29.725Z,101453.75
2022-08-02T06:02:45.246Z,101461.81
2022-08-02T06:03:52.233Z,101448.81
2022-08-02T06:05:00.634Z,101458.75
2022-08-02T06:06:07.527Z,101457.31
2022-08-02T06:07:12.030Z,101457.53
2022-08-02T06:08:15.185Z,101456.06
2022-08-02T06:09:23.028Z,101453.78
2022-08-02T06:10:30.566Z,101447.81
2022-08-02T06:11:36.930Z,101453.38
2022-08-02T06:12:46.697Z,101451.94
2022-08-02T06:13:49.377Z,101451.94
2022-08-02T06:14:54.644Z,101449.69
2022-08-02T06:16:00.945Z,101444.50
2022-08-02T06:17:05.207Z,101455.25
2022-08-02T06:18:09.130Z,101449.25
2022-08-02T06:19:13.985Z,101446.59
2022-08-02T06:20:16.707Z,101448.63
2022-08-02T06:22:32.244Z,101446.97
2022-08-02T06:22:46.433Z,101446.97
2022-08-02T06:23:57.793Z,101449.84
2022-08-02T06:25:04.519Z,101458.13
2022-08-02T06:26:09.039Z,101463.69
2022-08-02T06:27:13.520Z,101465.75
2022-08-02T06:28:18.087Z,101469.06
2022-08-02T06:29:21.077Z,101476.53
2022-08-02T06:30:26.909Z,101471.34
2022-08-02T06:31:30.578Z,101475.28
2022-08-02T06:32:33.582Z,101466.56
2022-08-02T06:33:36.843Z,101478.56
2022-08-02T06:34:39.735Z,101469.00
2022-08-02T06:35:47.595Z,101461.97
2022-08-02T06:36:55.643Z,101461.31
2022-08-02T06:38:01.901Z,101453.66
2022-08-02T06:39:09.517Z,101457.56
2022-08-02T06:40:24.698Z,101460.66
2022-08-02T06:41:29.430Z,101455.47
2022-08-02T06:42:43.562Z,101457.50
2022-08-02T06:43:53.706Z,101457.69
2022-08-02T06:44:57.994Z,101458.91
2022-08-02T06:46:37.713Z,101461.78
2022-08-02T06:47:24.836Z,101449.31
2022-08-02T06:48:28.056Z,101452.63
2022-08-02T06:49:51.964Z,101458.19
2022-08-02T06:50:53.581Z,101443.28
2022-08-02T06:51:55.810Z,101445.31
2022-08-02T06:52:59.018Z,101445.47
2022-08-02T06:54:01.309Z,101442.13
2022-08-02T06:55:06.796Z,101445.00
2022-08-02T06:56:10.479Z,101446.22
2022-08-02T06:57:14.536Z,101435.00
2022-08-02T06:58:17.746Z,101445.34
2022-08-02T06:59:19.900Z,101445.97
2022-08-02T07:00:23.041Z,101449.06
2022-08-02T07:01:25.362Z,101449.69
2022-08-02T07:02:28.589Z,101443.84
2022-08-02T07:03:31.113Z,101442.78
2022-08-02T07:04:34.970Z,101436.75
2022-08-02T07:05:38.662Z,101431.75
2022-08-02T07:06:40.871Z,101425.91
2022-08-02T07:07:44.101Z,101423.81
2022-08-02T07:09:04.915Z,101425.00
2022-08-02T07:10:10.217Z,101428.94
2022-08-02T07:11:14.762Z,101439.28
2022-08-02T07:12:16.982Z,101434.25
2022-08-02T07:13:20.171Z,101439.22
2022-08-02T07:14:22.319Z,101436.91
2022-08-02T07:15:25.544Z,101427.53
2022-08-02T07:16:27.695Z,101428.50
2022-08-02T07:17:31.281Z,101431.59
2022-08-02T07:18:35.101Z,101427.63
2022-08-02T07:19:38.615Z,101424.50
2022-08-02T07:20:41.044Z,101430.28
2022-08-02T07:21:56.609Z,101431.47
2022-08-02T07:23:02.832Z,101431.84
2022-08-02T07:24:05.379Z,101427.66
2022-08-02T07:25:09.605Z,101421.81
2022-08-02T07:26:13.121Z,101423.00
2022-08-02T07:27:16.368Z,101425.88
2022-08-02T07:28:24.019Z,101427.88
2022-08-02T07:29:27.042Z,101418.25
2022-08-02T07:30:36.257Z,101424.03
2022-08-02T07:31:38.454Z,101430.88
2022-08-02T07:32:44.649Z,101441.03
2022-08-02T07:33:47.188Z,101434.94
2022-08-02T07:34:53.494Z,101438.84
2022-08-02T07:35:58.768Z,101436.28
2022-08-02T07:37:03.962Z,101439.13
2022-08-02T07:38:09.277Z,101431.63
2022-08-02T07:39:11.451Z,101422.84
2022-08-02T07:40:19.876Z,101431.31
2022-08-02T07:41:25.946Z,101427.34
2022-08-02T07:42:29.476Z,101424.19
2022-08-02T07:43:32.682Z,101423.94
2022-08-02T07:44:34.916Z,101431.38
2022-08-02T07:45:45.792Z,101434.44
2022-08-02T07:46:59.548Z,101434.81
2022-08-02T07:48:02.942Z,101434.34
2022-08-02T07:49:05.148Z,101439.28
2022-08-02T07:50:09.860Z,101430.75
2022-08-02T07:51:16.987Z,101434.00
2022-08-02T07:52:20.502Z,101425.66
2022-08-02T07:53:30.638Z,101432.50
2022-08-02T07:54:47.289Z,101437.44
2022-08-02T07:55:50.456Z,101436.97
2022-08-02T07:56:58.372Z,101429.25
2022-08-02T07:58:02.462Z,101430.44
2022-08-02T07:59:05.226Z,101429.97
2022-08-02T08:00:09.767Z,101428.22
2022-08-02T08:01:14.719Z,101423.41
2022-08-02T08:02:17.910Z,101421.88
2022-08-02T08:03:20.403Z,101424.94
2022-08-02T08:04:23.714Z,101418.25
2022-08-02T08:05:25.857Z,101408.88
2022-08-02T08:06:29.478Z,101408.16
2022-08-02T08:07:31.695Z,101416.88
2022-08-02T08:08:35.759Z,101412.06
2022-08-02T08:09:41.201Z,101415.38
2022-08-02T08:10:43.524Z,101413.25
2022-08-02T08:11:46.638Z,101412.78
2022-08-02T08:12:50.227Z,101408.78
2022-08-02T08:13:53.413Z,101412.91
2022-08-02T08:14:55.765Z,101410.81
2022-08-02T08:15:58.984Z,101410.31
2022-08-02T08:17:02.442Z,101402.81
2022-08-02T08:18:04.730Z,101396.91
2022-08-02T08:19:07.990Z,101402.69
2022-08-02T08:20:15.418Z,101394.91
2022-08-02T08:21:19.241Z,101386.06
2022-08-02T08:22:21.611Z,101381.03
2022-08-02T08:23:24.894Z,101390.28
2022-08-02T08:24:27.188Z,101386.31
2022-08-02T08:25:30.366Z,101385.59
2022-08-02T08:26:32.634Z,101389.47
2022-08-02T08:27:35.848Z,101386.28
2022-08-02T08:28:40.393Z,101382.84
2022-08-02T08:29:43.007Z,101378.03
2022-08-02T08:30:47.404Z,101373.22
2022-08-02T08:31:49.822Z,101375.44
2022-08-02T08:32:53.115Z,101380.59
2022-08-02T08:33:56.901Z,101373.06
2022-08-02T08:34:59.469Z,101383.41
2022-08-02T08:36:02.809Z,101375.41
2022-08-02T08:37:06.372Z,101369.50
2022-08-02T08:38:09.696Z,101375.88
2022-08-02T08:39:12.886Z,101370.81
2022-08-02T08:40:19.327Z,101367.13
2022-08-02T08:41:22.978Z,101366.41
2022-08-02T08:42:25.199Z,101368.16
2022-08-02T08:43:28.364Z,101362.00
2022-08-02T08:44:33.241Z,101366.72
2022-08-02T08:45:36.881Z,101357.25
2022-08-02T08:46:43.406Z,101358.44
2022-08-02T08:47:52.212Z,101365.00
2022-08-02T08:49:01.169Z,101353.44
2022-08-02T08:50:05.860Z,101351.88
2022-08-02T08:51:12.914Z,101348.44
2022-08-02T08:52:16.510Z,101357.72
2022-08-02T08:53:21.400Z,101358.88
2022-08-02T08:54:42.156Z,101368.16
2022-08-02T08:55:44.931Z,101371.78
2022-08-02T08:56:48.504Z,101364.56
2022-08-02T08:57:51.354Z,101371.13
2022-08-02T08:58:54.492Z,101372.28
2022-08-02T08:59:58.448Z,101377.22
2022-08-02T09:01:01.741Z,101370.28
2022-08-02T09:02:16.833Z,101371.66
2022-08-02T09:03:24.752Z,101374.47
2022-08-02T09:04:27.161Z,101381.88
2022-08-02T09:05:30.313Z,101368.84
2022-08-02T09:06:32.528Z,101373.81
2022-08-02T09:07:35.726Z,101370.59
2022-08-02T09:08:38.953Z,101370.94
2022-08-02T09:09:41.148Z,101357.13
2022-08-02T09:10:46.076Z,101357.19
2022-08-02T09:11:49.336Z,101352.09
2022-08-02T09:13:37.504Z,101352.16
2022-08-02T09:14:32.759Z,101349.28
2022-08-02T09:15:36.495Z,101355.34
2022-08-02T09:16:41.395Z,101347.81
2022-08-02T09:17:50.897Z,101353.09
2022-08-02T09:18:54.054Z,101353.16
2022-08-02T09:20:07.949Z,101351.06
2022-08-02T09:21:11.487Z,101352.47
2022-08-02T09:22:16.278Z,101355.28
2022-08-02T09:23:18.950Z,101358.31
2022-08-02T09:24:23.748Z,101348.81
2022-08-02T09:25:25.926Z,101351.28
2022-08-02T09:26:29.431Z,101344.53
2022-08-02T09:27:37.821Z,101349.44
2022-08-02T09:28:41.662Z,101338.06
2022-08-02T09:30:11.656Z,101339.22
2022-08-02T09:31:13.558Z,101336.81
2022-08-02T09:32:17.948Z,101346.91
2022-08-02T09:33:27.462Z,101340.97
2022-08-02T09:34:45.277Z,101337.72
2022-08-02T09:36:06.548Z,101345.41
2022-08-02T09:37:23.316Z,101345.72
2022-08-02T09:38:26.464Z,101346.81
2022-08-02T09:39:47.598Z,101355.84
2022-08-02T09:40:50.156Z,101349.06
2022-08-02T09:41:53.397Z,101351.84
2022-08-02T09:42:59.339Z,101355.97
2022-08-02T09:44:06.435Z,101348.38
2022-08-02T09:45:10.296Z,101348.13
2022-08-02T09:46:17.174Z,101359.25
2022-08-02T09:47:19.295Z,101356.53
2022-08-02T09:48:22.776Z,101352.72
2022-08-02T09:49:26.149Z,101352.47
2022-08-02T09:50:29.627Z,101356.59
2022-08-02T09:51:34.759Z,101351.72
2022-08-02T09:52:43.697Z,101349.28
2022-08-02T09:53:48.741Z,101344.16
2022-08-02T09:54:52.178Z,101344.44
2022-08-02T09:55:56.204Z,101346.69
2022-08-02T09:57:01.076Z,101349.22
2022-08-02T09:58:19.097Z,101348.69
2022-08-02T09:59:25.360Z,101341.09
2022-08-02T10:00:50.878Z,101354.75
2022-08-02T10:02:01.273Z,101348.78
2022-08-02T10:03:09.418Z,101355.31
2022-08-02T10:04:22.519Z,101349.13
2022-08-02T10:05:30.129Z,101348.34
2022-08-02T10:06:38.756Z,101353.00
2022-08-02T10:07:41.989Z,101350.03
2022-08-02T10:08:45.479Z,101354.47
2022-08-02T10:09:49.173Z,101349.84
2022-08-02T10:11:00.375Z,101339.00
2022-08-02T10:12:04.871Z,101349.69
2022-08-02T10:13:07.369Z,101345.91
2022-08-02T10:14:11.890Z,101343.47
2022-08-02T10:15:14.868Z,101339.16
2022-08-02T10:16:19.751Z,101341.09
2022-08-02T10:17:25.337Z,101342.19
2022-08-02T10:18:38.848Z,101337.56
2022-08-02T10:20:00.067Z,101342.50
2022-08-02T10:21:07.567Z,101330.84
2022-08-02T10:22:12.779Z,101345.00
2022-08-02T10:23:16.160Z,101342.00
2022-08-02T10:24:22.210Z,101347.22
2022-08-02T10:25:25.039Z,101342.56
2022-08-02T10:26:28.568Z,101350.47
2022-08-02T10:27:48.922Z,101343.13
2022-08-02T10:28:55.353Z,101349.69
2022-08-02T10:30:00.713Z,101347.25
2022-08-02T10:31:06.499Z,101347.53
2022-08-02T10:32:13.007Z,101343.19
2022-08-02T10:33:20.176Z,101338.84
2022-08-02T10:34:31.563Z,101342.66
2022-08-02T10:35:37.700Z,101335.88
2022-08-02T10:36:42.834Z,101334.50
2022-08-02T10:37:47.920Z,101340.25
2022-08-02T10:38:51.531Z,101336.19
2022-08-02T10:39:56.557Z,101332.63
2022-08-02T10:40:59.781Z,101326.63
2022-08-02T10:42:02.930Z,101331.31
2022-08-02T10:43:05.060Z,101335.41
2022-08-02T10:44:08.287Z,101332.16
2022-08-02T10:45:28.316Z,101330.53
2022-08-02T10:46:33.293Z,101327.25
2022-08-02T10:47:36.469Z,101327.53
2022-08-02T10:49:36.138Z,101318.81
2022-08-02T10:50:55.734Z,101324.56
2022-08-02T10:52:07.071Z,101315.00
2022-08-02T10:53:29.781Z,101306.28
2022-08-02T10:54:34.513Z,101308.75
2022-08-02T10:55:46.589Z,101303.84
2022-08-02T10:56:51.102Z,101298.63
2022-08-02T10:58:17.733Z,101301.63
2022-08-02T10:59:29.247Z,101302.19
2022-08-02T11:00:32.429Z,101304.38
2022-08-02T11:01:43.895Z,101295.09
2022-08-02T11:02:53.306Z,101297.28
2022-08-02T11:03:59.541Z,101292.38
2022-08-02T11:05:06.972Z,101294.56
2022-08-02T11:06:24.986Z,101293.72
2022-08-02T11:07:36.401Z,101294.00
2022-08-02T11:08:40.199Z,101290.72
2022-08-02T11:09:42.947Z,101283.91
2022-08-02T11:10:46.528Z,101278.72
2022-08-02T11:12:01.447Z,101291.28
2022-08-02T11:13:10.493Z,101291.56
2022-08-02T11:14:14.763Z,101280.91
2022-08-02T11:15:20.032Z,101286.63
2022-08-02T11:16:23.191Z,101292.38
2022-08-02T11:17:28.902Z,101294.25
2022-08-02T11:19:04.055Z,101288.78
2022-08-02T11:20:19.015Z,101290.16
2022-08-02T11:21:24.771Z,101292.06
2022-08-02T11:22:28.069Z,101291.78
2022-08-02T11:23:44.266Z,101289.59
2022-08-02T11:24:49.313Z,101288.47
2022-08-02T11:26:03.554Z,101291.75
2022-08-02T11:27:09.034Z,101281.38
2022-08-02T11:28:12.714Z,101283.53
2022-08-02T11:29:16.346Z,101282.97
2022-08-02T11:30:20.572Z,101281.34
2022-08-02T11:31:29.306Z,101280.50
2022-08-02T11:32:36.157Z,101273.09
2022-08-02T11:33:38.852Z,101269.00
2022-08-02T11:34:43.545Z,101268.69
2022-08-02T11:35:47.181Z,101268.13
2022-08-02T11:36:52.743Z,101265.88
2022-08-02T11:37:55.352Z,101276.25
2022-08-02T11:39:10.709Z,101275.09
2022-08-02T11:40:18.994Z,101281.09
2022-08-02T11:41:45.810Z,101278.31
2022-08-02T11:42:50.399Z,101272.81
2022-08-02T11:43:54.851Z,101282.06
2022-08-02T11:44:58.102Z,101279.59
2022-08-02T11:46:03.898Z,101274.38
2022-08-02T11:47:08.411Z,101277.63
2022-08-02T11:48:10.741Z,101275.44
2022-08-02T11:49:16.173Z,101284.22
2022-08-02T11:50:29.950Z,101271.88
2022-08-02T11:51:34.148Z,101275.16
2022-08-02T11:52:39.020Z,101272.13
2022-08-02T11:53:50.162Z,101265.28
2022-08-02T11:54:53.363Z,101274.81
2022-08-02T11:55:57.436Z,101264.41
2022-08-02T11:57:19.293Z,101272.88
2022-08-02T11:58:23.442Z,101267.09
2022-08-02T11:59:25.695Z,101262.69
2022-08-02T12:00:30.579Z,101261.06
2022-08-02T12:01:44.788Z,101262.63
2022-08-02T12:02:49.862Z,101259.63
2022-08-02T12:03:52.262Z,101256.84
2022-08-02T12:04:58.422Z,101255.97
2022-08-02T12:06:06.419Z,101257.03
2022-08-02T12:07:15.334Z,101251.00
2022-08-02T12:08:19.195Z,101252.03
2022-08-02T12:09:27.603Z,101245.19
2022-08-02T12:10:31.138Z,101242.38
2022-08-02T12:11:39.175Z,101239.59
2022-08-02T12:12:49.758Z,101245.91
2022-08-02T12:13:57.064Z,101247.19
2022-08-02T12:15:00.763Z,101239.22
2022-08-02T12:16:25.750Z,101237.53
2022-08-02T12:17:50.086Z,101238.88
2022-08-02T12:19:22.353Z,101242.69
2022-08-02T12:20:37.363Z,101243.13
2022-08-02T12:21:40.682Z,101253.22
2022-08-02T12:22:45.520Z,101238.94
2022-08-02T12:24:00.131Z,101241.09
2022-08-02T12:25:33.466Z,101246.81
2022-08-02T12:26:44.451Z,101243.75
2022-08-02T12:27:47.897Z,101258.00
2022-08-02T12:28:57.526Z,101239.34
2022-08-02T12:30:03.667Z,101239.88
2022-08-02T12:31:08.436Z,101234.88
2022-08-02T12:32:25.417Z,101234.59
2022-08-02T12:33:30.369Z,101237.84
2022-08-02T12:34:35.077Z,101231.78
2022-08-02T12:35:37.337Z,101225.44
2022-08-02T12:36:40.692Z,101230.31
2022-08-02T12:37:47.561Z,101219.31
2022-08-02T12:38:53.133Z,101216.59